createdAt,value
2023-03-30T00:02:10.728Z,11.98
2023-03-30T00:07:31.550Z,12.38
2023-03-30T00:12:52.917Z,11.93
2023-03-30T00:18:14.519Z,9.43
2023-03-30T00:23:35.572Z,7.43
2023-03-30T00:28:56.132Z,8.13
2023-03-30T00:34:16.993Z,10.82
2023-03-30T00:39:37.565Z,8.98
2023-03-30T00:45:21.566Z,6.28
2023-03-30T00:50:50.846Z,7.82
2023-03-30T00:56:14.904Z,6.77
2023-03-30T01:01:39.583Z,7.75
2023-03-30T01:07:01.178Z,6.38
2023-03-30T01:12:21.889Z,6.95
2023-03-30T01:18:24.186Z,7.78
2023-03-30T01:24:07.822Z,8.30
2023-03-30T01:30:08.491Z,6.63
2023-03-30T01:35:32.312Z,7.82
2023-03-30T01:41:09.846Z,4.90
2023-03-30T01:46:40.400Z,6.43
2023-03-30T01:57:36.049Z,10.68
2023-03-30T02:03:05.668Z,6.32
2023-03-30T02:08:31.259Z,7.05
2023-03-30T02:13:55.242Z,7.05
2023-03-30T02:19:17.113Z,8.65
2023-03-30T02:24:38.176Z,7.10
2023-03-30T02:29:59.034Z,6.15
2023-03-30T02:35:38.969Z,8.13
2023-03-30T02:41:26.497Z,10.57
2023-03-30T02:46:59.952Z,5.40
2023-03-30T02:52:36.975Z,5.55
2023-03-30T02:58:23.766Z,4.75
2023-03-30T03:03:59.403Z,6.95
2023-03-30T03:09:26.083Z,7.47
2023-03-30T03:14:46.979Z,5.40
2023-03-30T03:20:10.690Z,3.58
2023-03-30T03:25:31.689Z,7.40
2023-03-30T03:30:58.445Z,6.65
2023-03-30T03:36:19.624Z,4.38
2023-03-30T03:41:44.862Z,4.75
2023-03-30T03:47:05.493Z,7.72
2023-03-30T03:52:26.686Z,5.53
2023-03-30T03:57:47.316Z,4.97
2023-03-30T04:03:09.220Z,7.28
2023-03-30T04:08:30.523Z,6.50
2023-03-30T04:13:59.470Z,6.43
2023-03-30T04:19:42.857Z,5.40
2023-03-30T04:25:25.968Z,5.57
2023-03-30T04:31:22.896Z,5.68
2023-03-30T04:37:03.946Z,7.32
2023-03-30T04:42:30.801Z,6.40
2023-03-30T04:48:13.551Z,6.55
2023-03-30T04:54:12.492Z,6.45
2023-03-30T05:00:12.335Z,7.43
2023-03-30T05:05:56.115Z,6.43
2023-03-30T05:11:35.810Z,7.83
2023-03-30T05:17:19.721Z,8.15
2023-03-30T05:23:07.988Z,11.30
2023-03-30T05:28:48.867Z,9.18
2023-03-30T05:34:18.969Z,7.38
2023-03-30T05:39:56.103Z,7.85
2023-03-30T05:45:35.976Z,7.63
2023-03-30T05:51:15.983Z,4.10
2023-03-30T05:56:54.182Z,4.80
2023-03-30T06:02:35.587Z,6.10
2023-03-30T06:08:01.046Z,6.07
2023-03-30T06:13:22.412Z,5.35
2023-03-30T06:18:46.959Z,5.95
2023-03-30T06:24:09.327Z,5.88
2023-03-30T06:29:32.901Z,5.25
2023-03-30T06:34:54.111Z,4.72
2023-03-30T06:40:19.171Z,5.47
2023-03-30T06:45:44.310Z,5.32
2023-03-30T06:51:06.751Z,5.07
2023-03-30T06:56:28.068Z,3.95
2023-03-30T07:02:18.047Z,7.75
2023-03-30T07:07:59.682Z,6.40
2023-03-30T07:13:21.318Z,6.18
2023-03-30T07:18:43.584Z,7.20
2023-03-30T07:24:04.476Z,5.57
2023-03-30T07:29:29.648Z,6.10
2023-03-30T07:34:51.330Z,5.80
2023-03-30T07:40:13.111Z,5.22
2023-03-30T07:45:36.098Z,4.95
2023-03-30T07:51:06.893Z,6.47
2023-03-30T07:56:33.552Z,8.18
2023-03-30T08:01:56.326Z,6.28
2023-03-30T08:07:39.833Z,7.15
2023-03-30T08:13:12.612Z,7.07
2023-03-30T08:18:33.821Z,6.15
2023-03-30T08:23:57.978Z,5.03
2023-03-30T08:29:19.405Z,7.25
2023-03-30T08:34:40.824Z,3.42
2023-03-30T08:40:01.979Z,4.75
2023-03-30T08:45:23.113Z,7.90
2023-03-30T08:51:07.175Z,8.23
2023-03-30T08:57:03.460Z,8.27
2023-03-30T09:02:31.144Z,9.57
2023-03-30T09:08:06.425Z,6.03
2023-03-30T09:13:36.456Z,5.93
2023-03-30T09:19:01.688Z,8.65
2023-03-30T09:24:26.349Z,7.20
2023-03-30T09:29:49.246Z,9.15
2023-03-30T09:35:13.369Z,4.70
2023-03-30T09:40:47.521Z,8.88
2023-03-30T09:46:09.447Z,6.30
2023-03-30T09:51:31.390Z,3.65
2023-03-30T09:56:54.573Z,10.35
2023-03-30T10:02:18.139Z,6.78
2023-03-30T10:07:41.999Z,9.52
2023-03-30T10:13:12.257Z,11.07
2023-03-30T10:18:45.062Z,10.48
2023-03-30T10:24:22.307Z,6.72
2023-03-30T10:29:50.312Z,7.47
2023-03-30T10:35:11.443Z,6.70
2023-03-30T10:40:39.202Z,9.93
2023-03-30T10:46:27.851Z,13.35
2023-03-30T10:52:01.150Z,7.07
2023-03-30T10:57:32.531Z,10.52
2023-03-30T11:03:12.845Z,13.07
2023-03-30T11:08:43.131Z,5.55
2023-03-30T11:14:12.646Z,10.00
2023-03-30T11:19:42.528Z,4.78
2023-03-30T11:25:16.691Z,7.75
2023-03-30T11:30:39.258Z,5.60
2023-03-30T11:36:23.653Z,6.78
2023-03-30T11:42:28.769Z,8.43
2023-03-30T11:48:27.121Z,7.35
2023-03-30T11:54:21.959Z,9.05
2023-03-30T11:59:56.397Z,6.90
2023-03-30T12:05:27.995Z,7.32
2023-03-30T12:10:54.654Z,4.75
2023-03-30T12:16:29.148Z,2.45
2023-03-30T12:22:04.608Z,4.30
2023-03-30T12:27:29.119Z,3.75
2023-03-30T12:33:11.546Z,4.63
2023-03-30T12:38:43.613Z,4.40
2023-03-30T12:44:23.178Z,5.15
2023-03-30T12:50:06.811Z,3.33
2023-03-30T12:55:27.509Z,3.97
2023-03-30T13:01:01.206Z,2.03
2023-03-30T13:06:24.244Z,3.38
2023-03-30T13:11:56.981Z,4.95
2023-03-30T13:17:22.229Z,2.88
2023-03-30T13:22:59.491Z,2.90
2023-03-30T13:28:35.726Z,4.57
2023-03-30T13:34:23.385Z,2.75
2023-03-30T13:39:55.772Z,3.25
2023-03-30T13:45:43.224Z,7.25
2023-03-30T13:51:04.745Z,3.60
2023-03-30T13:56:27.408Z,3.03
2023-03-30T14:01:57.361Z,4.85
2023-03-30T14:12:41.758Z,3.80
2023-03-30T14:18:05.287Z,5.38
2023-03-30T14:23:38.109Z,7.22
2023-03-30T14:29:03.371Z,4.38
2023-03-30T14:34:28.187Z,3.90
2023-03-30T14:39:55.491Z,4.28
2023-03-30T14:45:18.928Z,4.90
2023-03-30T14:50:40.014Z,2.95
2023-03-30T14:56:01.487Z,2.25
2023-03-30T15:01:31.047Z,3.05
2023-03-30T15:06:53.520Z,1.83
2023-03-30T15:12:29.808Z,8.07
2023-03-30T15:17:51.491Z,5.22
2023-03-30T15:23:13.942Z,2.53
2023-03-30T15:28:44.320Z,2.85
2023-03-30T15:34:14.300Z,2.22
2023-03-30T15:39:36.374Z,2.92
2023-03-30T15:45:09.792Z,4.60
2023-03-30T15:50:30.614Z,3.05
2023-03-30T15:55:52.192Z,2.63
2023-03-30T16:01:16.827Z,6.75
2023-03-30T16:06:37.744Z,5.10
2023-03-30T16:11:58.514Z,4.57
2023-03-30T16:17:19.638Z,6.32
2023-03-30T16:22:40.633Z,3.30
2023-03-30T16:28:01.629Z,3.08
2023-03-30T16:33:22.272Z,2.47
2023-03-30T16:38:43.494Z,4.55
2023-03-30T16:44:04.106Z,5.63
2023-03-30T16:49:26.232Z,4.38
2023-03-30T16:54:47.138Z,5.47
2023-03-30T17:00:15.355Z,10.13
2023-03-30T17:05:36.885Z,6.20
2023-03-30T17:11:01.445Z,6.28
2023-03-30T17:16:25.175Z,4.85
2023-03-30T17:21:46.297Z,4.72
2023-03-30T17:27:07.013Z,4.50
2023-03-30T17:32:27.814Z,5.60
2023-03-30T17:37:49.999Z,5.30
2023-03-30T17:43:11.276Z,6.60
2023-03-30T17:48:32.265Z,4.03
2023-03-30T17:53:53.335Z,3.85
2023-03-30T17:59:14.106Z,2.50
2023-03-30T18:04:35.235Z,3.67
2023-03-30T18:09:56.245Z,4.00
2023-03-30T18:15:19.847Z,1.33
2023-03-30T18:20:43.965Z,1.15
2023-03-30T18:26:10.285Z,0.70
2023-03-30T18:31:32.316Z,0.70
2023-03-30T18:36:53.207Z,0.65
2023-03-30T18:42:13.849Z,1.77
2023-03-30T18:47:34.559Z,0.93
2023-03-30T18:52:55.355Z,0.52
2023-03-30T18:58:21.187Z,0.57
2023-03-30T19:03:42.850Z,2.20
2023-03-30T19:09:03.582Z,1.27
2023-03-30T19:14:24.094Z,1.50
2023-03-30T19:19:44.867Z,0.80
2023-03-30T19:25:06.405Z,3.55
2023-03-30T19:30:27.518Z,1.63
2023-03-30T19:35:48.660Z,2.05
2023-03-30T19:41:09.542Z,2.42
2023-03-30T19:46:30.693Z,2.33
2023-03-30T19:51:51.480Z,2.55
2023-03-30T19:57:12.731Z,2.05
2023-03-30T20:02:33.675Z,2.25
2023-03-30T20:07:54.381Z,1.05
2023-03-30T20:13:17.025Z,0.70
2023-03-30T20:18:40.293Z,2.72
2023-03-30T20:24:01.010Z,2.03
2023-03-30T20:29:21.619Z,3.38
2023-03-30T20:34:42.581Z,1.00
2023-03-30T20:40:09.980Z,1.35
2023-03-30T20:45:31.780Z,1.48
2023-03-30T20:50:56.295Z,1.75
2023-03-30T20:56:17.806Z,1.52
2023-03-30T21:01:41.321Z,2.05
2023-03-30T21:07:02.364Z,1.35
2023-03-30T21:12:23.125Z,2.90
2023-03-30T21:17:43.889Z,1.58
2023-03-30T21:23:04.581Z,2.05
2023-03-30T21:28:29.630Z,1.52
2023-03-30T21:33:50.683Z,1.20
2023-03-30T21:39:11.633Z,1.63
2023-03-30T21:44:36.387Z,2.42
2023-03-30T21:49:57.396Z,2.13
2023-03-30T21:55:18.164Z,2.75
2023-03-30T22:00:38.823Z,3.72
2023-03-30T22:06:01.883Z,1.73
2023-03-30T22:11:25.451Z,3.92
2023-03-30T22:16:46.922Z,2.30
2023-03-30T22:22:07.992Z,1.80
2023-03-30T22:27:28.682Z,2.00
2023-03-30T22:32:49.480Z,3.65
2023-03-30T22:38:11.362Z,1.33
2023-03-30T22:43:32.801Z,3.15
2023-03-30T22:48:55.703Z,1.90
2023-03-30T22:54:18.258Z,2.90
2023-03-30T22:59:39.098Z,2.15
2023-03-30T23:05:01.498Z,2.78
2023-03-30T23:10:25.456Z,1.10
2023-03-30T23:15:48.570Z,1.50
2023-03-30T23:21:11.247Z,2.88
2023-03-30T23:26:32.416Z,1.50
2023-03-30T23:31:53.366Z,1.70
2023-03-30T23:37:14.081Z,2.08
2023-03-30T23:42:34.829Z,2.85
2023-03-30T23:47:55.853Z,2.08
2023-03-30T23:53:16.559Z,3.03
2023-03-30T23:58:37.221Z,2.50
